sensor_id;sensor_type;location;lat;lon;timestamp;temperature;humidity
20881;DHT22;10600;53.096;8.802;2023-04-29T00:00:20;9.70;99.90
20881;DHT22;10600;53.096;8.802;2023-04-29T00:01:20;9.70;99.90
20881;DHT22;10600;53.096;8.802;2023-04-29T00:02:21;9.70;99.90
20881;DHT22;10600;53.096;8.802;2023-04-29T00:03:22;9.70;99.90
20881;DHT22;10600;53.096;8.802;2023-04-29T00:04:22;9.70;99.90
20881;DHT22;10600;53.096;8.802;2023-04-29T00:05:23;9.70;99.90
20881;DHT22;10600;53.096;8.802;2023-04-29T00:06:24;9.60;99.90
20881;DHT22;10600;53.096;8.802;2023-04-29T00:07:24;9.70;99.90
20881;DHT22;10600;53.096;8.802;2023-04-29T00:08:25;9.60;99.90
20881;DHT22;10600;53.096;8.802;2023-04-29T00:09:26;9.60;99.90
20881;DHT22;10600;53.096;8.802;2023-04-29T00:10:27;9.60;99.90
20881;DHT22;10600;53.096;8.802;2023-04-29T00:11:28;9.60;99.90
20881;DHT22;10600;53.096;8.802;2023-04-29T00:12:29;9.60;99.90
20881;DHT22;10600;53.096;8.802;2023-04-29T00:13:31;9.60;99.90
20881;DHT22;10600;53.096;8.802;2023-04-29T00:14:31;9.60;99.90
20881;DHT22;10600;53.096;8.802;2023-04-29T00:15:32;9.60;99.90
20881;DHT22;10600;53.096;8.802;2023-04-29T00:16:33;9.60;99.90
20881;DHT22;10600;53.096;8.802;2023-04-29T00:17:34;9.60;99.90
20881;DHT22;10600;53.096;8.802;2023-04-29T00:18:35;9.60;99.90
20881;DHT22;10600;53.096;8.802;2023-04-29T00:19:36;9.60;99.90
20881;DHT22;10600;53.096;8.802;2023-04-29T00:20:38;9.60;99.90
20881;DHT22;10600;53.096;8.802;2023-04-29T00:21:39;9.60;99.90
20881;DHT22;10600;53.096;8.802;2023-04-29T00:22:39;9.50;99.90
20881;DHT22;10600;53.096;8.802;2023-04-29T00:23:40;9.50;99.90
20881;DHT22;10600;53.096;8.802;2023-04-29T00:24:41;9.60;99.90
20881;DHT22;10600;53.096;8.802;2023-04-29T00:25:41;9.60;99.90
20881;DHT22;10600;53.096;8.802;2023-04-29T00:26:42;9.60;99.90
20881;DHT22;10600;53.096;8.802;2023-04-29T00:27:43;9.50;99.90
20881;DHT22;10600;53.096;8.802;2023-04-29T00:28:43;9.50;99.90
20881;DHT22;10600;53.096;8.802;2023-04-29T00:29:44;9.50;99.90
20881;DHT22;10600;53.096;8.802;2023-04-29T00:30:45;9.50;99.90
20881;DHT22;10600;53.096;8.802;2023-04-29T00:31:45;9.50;99.90
20881;DHT22;10600;53.096;8.802;2023-04-29T00:32:46;9.50;99.90
20881;DHT22;10600;53.096;8.802;2023-04-29T00:33:47;9.50;99.90
20881;DHT22;10600;53.096;8.802;2023-04-29T00:34:47;9.50;99.90
20881;DHT22;10600;53.096;8.802;2023-04-29T00:35:48;9.50;99.90
20881;DHT22;10600;53.096;8.802;2023-04-29T00:36:49;9.50;99.90
20881;DHT22;10600;53.096;8.802;2023-04-29T00:37:49;9.50;99.90
20881;DHT22;10600;53.096;8.802;2023-04-29T00:38:50;9.50;99.90
20881;DHT22;10600;53.096;8.802;2023-04-29T00:39:51;9.50;99.90
20881;DHT22;10600;53.096;8.802;2023-04-29T00:40:51;9.50;99.90
20881;DHT22;10600;53.096;8.802;2023-04-29T00:41:52;9.50;99.90
20881;DHT22;10600;53.096;8.802;2023-04-29T00:42:53;9.50;99.90
20881;DHT22;10600;53.096;8.802;2023-04-29T00:43:54;9.50;99.90
20881;DHT22;10600;53.096;8.802;2023-04-29T00:44:54;9.50;99.90
20881;DHT22;10600;53.096;8.802;2023-04-29T00:45:55;9.50;99.90
20881;DHT22;10600;53.096;8.802;2023-04-29T00:46:56;9.50;99.90
20881;DHT22;10600;53.096;8.802;2023-04-29T00:47:58;9.40;99.90
20881;DHT22;10600;53.096;8.802;2023-04-29T00:48:59;9.40;99.90
20881;DHT22;10600;53.096;8.802;2023-04-29T00:50:00;9.40;99.90
20881;DHT22;10600;53.096;8.802;2023-04-29T00:51:02;9.40;99.90
20881;DHT22;10600;53.096;8.802;2023-04-29T00:52:03;9.40;99.90
20881;DHT22;10600;53.096;8.802;2023-04-29T00:53:04;9.40;99.90
20881;DHT22;10600;53.096;8.802;2023-04-29T00:54:05;9.40;99.90
20881;DHT22;10600;53.096;8.802;2023-04-29T00:55:07;9.40;99.90
20881;DHT22;10600;53.096;8.802;2023-04-29T00:56:08;9.40;99.90
20881;DHT22;10600;53.096;8.802;2023-04-29T00:57:09;9.40;99.90
20881;DHT22;10600;53.096;8.802;2023-04-29T00:58:11;9.40;99.90
20881;DHT22;10600;53.096;8.802;2023-04-29T00:59:12;9.40;99.90
20881;DHT22;10600;53.096;8.802;2023-04-29T01:00:14;9.40;99.90
20881;DHT22;10600;53.096;8.802;2023-04-29T01:01:15;9.40;99.90
20881;DHT22;10600;53.096;8.802;2023-04-29T01:02:17;9.40;99.90
20881;DHT22;10600;53.096;8.802;2023-04-29T01:03:18;9.40;99.90
20881;DHT22;10600;53.096;8.802;2023-04-29T01:04:19;9.40;99.90
20881;DHT22;10600;53.096;8.802;2023-04-29T01:05:20;9.30;99.90
20881;DHT22;10600;53.096;8.802;2023-04-29T01:08:23;9.30;99.90
20881;DHT22;10600;53.096;8.802;2023-04-29T01:09:48;9.40;99.90
20881;DHT22;10600;53.096;8.802;2023-04-29T01:11:03;9.30;99.90
20881;DHT22;10600;53.096;8.802;2023-04-29T01:12:32;9.30;99.90
20881;DHT22;10600;53.096;8.802;2023-04-29T01:13:49;9.30;99.90
20881;DHT22;10600;53.096;8.802;2023-04-29T01:15:03;9.30;99.90
20881;DHT22;10600;53.096;8.802;2023-04-29T01:16:10;9.30;99.90
20881;DHT22;10600;53.096;8.802;2023-04-29T01:17:17;9.30;99.90
20881;DHT22;10600;53.096;8.802;2023-04-29T01:18:28;9.30;99.90
20881;DHT22;10600;53.096;8.802;2023-04-29T01:19:47;9.30;99.90
20881;DHT22;10600;53.096;8.802;2023-04-29T01:20:47;9.30;99.90
20881;DHT22;10600;53.096;8.802;2023-04-29T01:21:48;9.20;99.90
20881;DHT22;10600;53.096;8.802;2023-04-29T01:22:49;9.20;99.90
20881;DHT22;10600;53.096;8.802;2023-04-29T01:23:50;9.30;99.90
20881;DHT22;10600;53.096;8.802;2023-04-29T01:24:55;9.20;99.90
20881;DHT22;10600;53.096;8.802;2023-04-29T01:25:57;9.20;99.90
20881;DHT22;10600;53.096;8.802;2023-04-29T01:27:04;9.20;99.90
20881;DHT22;10600;53.096;8.802;2023-04-29T01:29:34;9.20;99.90
20881;DHT22;10600;53.096;8.802;2023-04-29T01:31:06;9.20;99.90
20881;DHT22;10600;53.096;8.802;2023-04-29T01:32:11;9.20;99.90
20881;DHT22;10600;53.096;8.802;2023-04-29T01:33:28;9.20;99.90
20881;DHT22;10600;53.096;8.802;2023-04-29T01:34:57;9.20;99.90
20881;DHT22;10600;53.096;8.802;2023-04-29T01:36:26;9.20;99.90
20881;DHT22;10600;53.096;8.802;2023-04-29T01:37:55;9.20;99.90
20881;DHT22;10600;53.096;8.802;2023-04-29T01:39:13;9.20;99.90
20881;DHT22;10600;53.096;8.802;2023-04-29T01:40:19;9.20;99.90
20881;DHT22;10600;53.096;8.802;2023-04-29T01:41:30;9.20;99.90
20881;DHT22;10600;53.096;8.802;2023-04-29T01:42:39;9.10;99.90
20881;DHT22;10600;53.096;8.802;2023-04-29T01:43:42;9.10;99.90
20881;DHT22;10600;53.096;8.802;2023-04-29T01:44:48;9.10;99.90
20881;DHT22;10600;53.096;8.802;2023-04-29T01:45:52;9.10;99.90
20881;DHT22;10600;53.096;8.802;2023-04-29T01:46:54;9.10;99.90
20881;DHT22;10600;53.096;8.802;2023-04-29T01:47:57;9.10;99.90
20881;DHT22;10600;53.096;8.802;2023-04-29T01:48:58;9.10;99.90
20881;DHT22;10600;53.096;8.802;2023-04-29T01:49:59;9.10;99.90
20881;DHT22;10600;53.096;8.802;2023-04-29T01:51:00;9.10;99.90
20881;DHT22;10600;53.096;8.802;2023-04-29T01:52:00;9.10;99.90
20881;DHT22;10600;53.096;8.802;2023-04-29T01:53:01;9.00;99.90
20881;DHT22;10600;53.096;8.802;2023-04-29T01:54:02;9.00;99.90
20881;DHT22;10600;53.096;8.802;2023-04-29T01:55:05;9.00;99.90
20881;DHT22;10600;53.096;8.802;2023-04-29T01:56:06;9.00;99.90
20881;DHT22;10600;53.096;8.802;2023-04-29T01:57:07;9.00;99.90
20881;DHT22;10600;53.096;8.802;2023-04-29T01:58:09;9.00;99.90
20881;DHT22;10600;53.096;8.802;2023-04-29T01:59:09;9.00;99.90
20881;DHT22;10600;53.096;8.802;2023-04-29T02:00:11;9.00;99.90
20881;DHT22;10600;53.096;8.802;2023-04-29T02:01:12;9.00;99.90
20881;DHT22;10600;53.096;8.802;2023-04-29T02:02:13;9.00;99.90
20881;DHT22;10600;53.096;8.802;2023-04-29T02:03:21;9.00;99.90
20881;DHT22;10600;53.096;8.802;2023-04-29T02:04:21;9.00;99.90
20881;DHT22;10600;53.096;8.802;2023-04-29T02:05:23;9.00;99.90
20881;DHT22;10600;53.096;8.802;2023-04-29T02:06:24;9.00;99.90
20881;DHT22;10600;53.096;8.802;2023-04-29T02:07:25;9.00;99.90
20881;DHT22;10600;53.096;8.802;2023-04-29T02:08:27;9.00;99.90
20881;DHT22;10600;53.096;8.802;2023-04-29T02:09:27;9.00;99.90
20881;DHT22;10600;53.096;8.802;2023-04-29T02:10:28;8.90;99.90
20881;DHT22;10600;53.096;8.802;2023-04-29T02:11:28;8.90;99.90
20881;DHT22;10600;53.096;8.802;2023-04-29T02:12:29;8.90;99.90
20881;DHT22;10600;53.096;8.802;2023-04-29T02:13:30;8.90;99.90
20881;DHT22;10600;53.096;8.802;2023-04-29T02:14:31;8.90;99.90
20881;DHT22;10600;53.096;8.802;2023-04-29T02:15:33;8.90;99.90
20881;DHT22;10600;53.096;8.802;2023-04-29T02:16:34;8.90;99.90
20881;DHT22;10600;53.096;8.802;2023-04-29T02:17:34;8.90;99.90
20881;DHT22;10600;53.096;8.802;2023-04-29T02:18:35;8.90;99.90
20881;DHT22;10600;53.096;8.802;2023-04-29T02:19:36;8.90;99.90
20881;DHT22;10600;53.096;8.802;2023-04-29T02:20:36;8.90;99.90
20881;DHT22;10600;53.096;8.802;2023-04-29T02:21:37;8.80;99.90
20881;DHT22;10600;53.096;8.802;2023-04-29T02:22:39;8.80;99.90
20881;DHT22;10600;53.096;8.802;2023-04-29T02:23:39;8.80;99.90
20881;DHT22;10600;53.096;8.802;2023-04-29T02:24:40;8.80;99.90
20881;DHT22;10600;53.096;8.802;2023-04-29T02:25:41;8.80;99.90
20881;DHT22;10600;53.096;8.802;2023-04-29T02:26:41;8.80;99.90
20881;DHT22;10600;53.096;8.802;2023-04-29T02:27:42;8.80;99.90
20881;DHT22;10600;53.096;8.802;2023-04-29T02:28:43;8.80;99.90
20881;DHT22;10600;53.096;8.802;2023-04-29T02:29:43;8.80;99.90
20881;DHT22;10600;53.096;8.802;2023-04-29T02:30:44;8.70;99.90
20881;DHT22;10600;53.096;8.802;2023-04-29T02:31:45;8.70;99.90
20881;DHT22;10600;53.096;8.802;2023-04-29T02:32:45;8.70;99.90
20881;DHT22;10600;53.096;8.802;2023-04-29T02:33:46;8.70;99.90
20881;DHT22;10600;53.096;8.802;2023-04-29T02:34:47;8.70;99.90
20881;DHT22;10600;53.096;8.802;2023-04-29T02:35:48;8.70;99.90
20881;DHT22;10600;53.096;8.802;2023-04-29T02:36:49;8.60;99.90
20881;DHT22;10600;53.096;8.802;2023-04-29T02:37:49;8.60;99.90
20881;DHT22;10600;53.096;8.802;2023-04-29T02:38:50;8.60;99.90
20881;DHT22;10600;53.096;8.802;2023-04-29T02:39:53;8.60;99.90
20881;DHT22;10600;53.096;8.802;2023-04-29T02:40:53;8.60;99.90
20881;DHT22;10600;53.096;8.802;2023-04-29T02:41:54;8.60;99.90
20881;DHT22;10600;53.096;8.802;2023-04-29T02:42:55;8.60;99.90
20881;DHT22;10600;53.096;8.802;2023-04-29T02:43:56;8.60;99.90
20881;DHT22;10600;53.096;8.802;2023-04-29T02:44:57;8.60;99.90
20881;DHT22;10600;53.096;8.802;2023-04-29T02:45:58;8.60;99.90
20881;DHT22;10600;53.096;8.802;2023-04-29T02:46:59;8.60;99.90
20881;DHT22;10600;53.096;8.802;2023-04-29T02:48:00;8.60;99.90
20881;DHT22;10600;53.096;8.802;2023-04-29T02:49:01;8.60;99.90
20881;DHT22;10600;53.096;8.802;2023-04-29T02:50:02;8.60;99.90
20881;DHT22;10600;53.096;8.802;2023-04-29T02:51:04;8.60;99.90
20881;DHT22;10600;53.096;8.802;2023-04-29T02:52:04;8.60;99.90
20881;DHT22;10600;53.096;8.802;2023-04-29T02:53:05;8.60;99.90
20881;DHT22;10600;53.096;8.802;2023-04-29T02:54:06;8.60;99.90
20881;DHT22;10600;53.096;8.802;2023-04-29T02:55:07;8.60;99.90
20881;DHT22;10600;53.096;8.802;2023-04-29T02:56:08;8.60;99.90
20881;DHT22;10600;53.096;8.802;2023-04-29T02:57:09;8.60;99.90
20881;DHT22;10600;53.096;8.802;2023-04-29T02:58:10;8.60;99.90
20881;DHT22;10600;53.096;8.802;2023-04-29T02:59:11;8.60;99.90
20881;DHT22;10600;53.096;8.802;2023-04-29T03:00:11;8.60;99.90
20881;DHT22;10600;53.096;8.802;2023-04-29T03:01:12;8.60;99.90
20881;DHT22;10600;53.096;8.802;2023-04-29T03:02:12;8.60;99.90
20881;DHT22;10600;53.096;8.802;2023-04-29T03:03:14;8.60;99.90
20881;DHT22;10600;53.096;8.802;2023-04-29T03:04:15;8.60;99.90
20881;DHT22;10600;53.096;8.802;2023-04-29T03:05:16;8.60;99.90
20881;DHT22;10600;53.096;8.802;2023-04-29T03:06:16;8.60;99.90
20881;DHT22;10600;53.096;8.802;2023-04-29T03:07:17;8.60;99.90
20881;DHT22;10600;53.096;8.802;2023-04-29T03:08:17;8.60;99.90
20881;DHT22;10600;53.096;8.802;2023-04-29T03:09:18;8.60;99.90
20881;DHT22;10600;53.096;8.802;2023-04-29T03:10:21;8.70;99.90
20881;DHT22;10600;53.096;8.802;2023-04-29T03:11:21;8.60;99.90
20881;DHT22;10600;53.096;8.802;2023-04-29T03:12:24;8.60;99.90
20881;DHT22;10600;53.096;8.802;2023-04-29T03:13:24;8.60;99.90
20881;DHT22;10600;53.096;8.802;2023-04-29T03:14:25;8.60;99.90
20881;DHT22;10600;53.096;8.802;2023-04-29T03:15:26;8.60;99.90
20881;DHT22;10600;53.096;8.802;2023-04-29T03:16:26;8.60;99.90
20881;DHT22;10600;53.096;8.802;2023-04-29T03:17:28;8.60;99.90
20881;DHT22;10600;53.096;8.802;2023-04-29T03:18:29;8.60;99.90
20881;DHT22;10600;53.096;8.802;2023-04-29T03:19:29;8.60;99.90
20881;DHT22;10600;53.096;8.802;2023-04-29T03:20:30;8.60;99.90
20881;DHT22;10600;53.096;8.802;2023-04-29T03:21:32;8.60;99.90
20881;DHT22;10600;53.096;8.802;2023-04-29T03:22:33;8.60;99.90
20881;DHT22;10600;53.096;8.802;2023-04-29T03:23:34;8.60;99.90
20881;DHT22;10600;53.096;8.802;2023-04-29T03:24:34;8.60;99.90
20881;DHT22;10600;53.096;8.802;2023-04-29T03:25:35;8.60;99.90
20881;DHT22;10600;53.096;8.802;2023-04-29T03:26:36;8.60;99.90
20881;DHT22;10600;53.096;8.802;2023-04-29T03:27:36;8.60;99.90
20881;DHT22;10600;53.096;8.802;2023-04-29T03:28:37;8.60;99.90
20881;DHT22;10600;53.096;8.802;2023-04-29T03:29:38;8.60;99.90
20881;DHT22;10600;53.096;8.802;2023-04-29T03:30:38;8.60;99.90
20881;DHT22;10600;53.096;8.802;2023-04-29T03:31:39;8.70;99.90
20881;DHT22;10600;53.096;8.802;2023-04-29T03:32:40;8.70;99.90
20881;DHT22;10600;53.096;8.802;2023-04-29T03:33:40;8.70;99.90
20881;DHT22;10600;53.096;8.802;2023-04-29T03:34:41;8.70;99.90
20881;DHT22;10600;53.096;8.802;2023-04-29T03:35:42;8.60;99.90
20881;DHT22;10600;53.096;8.802;2023-04-29T03:36:43;8.70;99.90
20881;DHT22;10600;53.096;8.802;2023-04-29T03:37:43;8.70;99.90
20881;DHT22;10600;53.096;8.802;2023-04-29T03:38:44;8.60;99.90
20881;DHT22;10600;53.096;8.802;2023-04-29T03:39:45;8.60;99.90
20881;DHT22;10600;53.096;8.802;2023-04-29T03:40:45;8.60;99.90
20881;DHT22;10600;53.096;8.802;2023-04-29T03:41:46;8.60;99.90
20881;DHT22;10600;53.096;8.802;2023-04-29T03:42:47;8.60;99.90
20881;DHT22;10600;53.096;8.802;2023-04-29T03:43:48;8.60;99.90
20881;DHT22;10600;53.096;8.802;2023-04-29T03:44:48;8.60;99.90
20881;DHT22;10600;53.096;8.802;2023-04-29T03:45:49;8.60;99.90
20881;DHT22;10600;53.096;8.802;2023-04-29T03:46:51;8.60;99.90
20881;DHT22;10600;53.096;8.802;2023-04-29T03:47:51;8.60;99.90
20881;DHT22;10600;53.096;8.802;2023-04-29T03:48:54;8.60;99.90
20881;DHT22;10600;53.096;8.802;2023-04-29T03:49:55;8.60;99.90
20881;DHT22;10600;53.096;8.802;2023-04-29T03:50:56;8.60;99.90
20881;DHT22;10600;53.096;8.802;2023-04-29T03:51:56;8.60;99.90
20881;DHT22;10600;53.096;8.802;2023-04-29T03:52:57;8.60;99.90
20881;DHT22;10600;53.096;8.802;2023-04-29T03:53:58;8.60;99.90
20881;DHT22;10600;53.096;8.802;2023-04-29T03:54:58;8.60;99.90
20881;DHT22;10600;53.096;8.802;2023-04-29T03:55:59;8.60;99.90
20881;DHT22;10600;53.096;8.802;2023-04-29T03:57:00;8.60;99.90
20881;DHT22;10600;53.096;8.802;2023-04-29T03:58:01;8.60;99.90
20881;DHT22;10600;53.096;8.802;2023-04-29T03:59:02;8.60;99.90
20881;DHT22;10600;53.096;8.802;2023-04-29T04:00:03;8.60;99.90
20881;DHT22;10600;53.096;8.802;2023-04-29T04:01:04;8.60;99.90
20881;DHT22;10600;53.096;8.802;2023-04-29T04:02:05;8.50;99.90
20881;DHT22;10600;53.096;8.802;2023-04-29T04:03:05;8.60;99.90
20881;DHT22;10600;53.096;8.802;2023-04-29T04:04:06;8.60;99.90
20881;DHT22;10600;53.096;8.802;2023-04-29T04:05:07;8.60;99.90
20881;DHT22;10600;53.096;8.802;2023-04-29T04:06:08;8.60;99.90
20881;DHT22;10600;53.096;8.802;2023-04-29T04:07:08;8.60;99.90
20881;DHT22;10600;53.096;8.802;2023-04-29T04:08:09;8.60;99.90
20881;DHT22;10600;53.096;8.802;2023-04-29T04:09:10;8.60;99.90
20881;DHT22;10600;53.096;8.802;2023-04-29T04:10:11;8.60;99.90
20881;DHT22;10600;53.096;8.802;2023-04-29T04:11:11;8.60;99.90
20881;DHT22;10600;53.096;8.802;2023-04-29T04:12:14;8.50;99.90
20881;DHT22;10600;53.096;8.802;2023-04-29T04:13:15;8.50;99.90
20881;DHT22;10600;53.096;8.802;2023-04-29T04:14:15;8.50;99.90
20881;DHT22;10600;53.096;8.802;2023-04-29T04:15:16;8.50;99.90
20881;DHT22;10600;53.096;8.802;2023-04-29T04:16:17;8.50;99.90
20881;DHT22;10600;53.096;8.802;2023-04-29T04:17:17;8.50;99.90
20881;DHT22;10600;53.096;8.802;2023-04-29T04:18:18;8.50;99.90
20881;DHT22;10600;53.096;8.802;2023-04-29T04:19:19;8.50;99.90
20881;DHT22;10600;53.096;8.802;2023-04-29T04:20:19;8.50;99.90
20881;DHT22;10600;53.096;8.802;2023-04-29T04:21:20;8.50;99.90
20881;DHT22;10600;53.096;8.802;2023-04-29T04:22:21;8.50;99.90
20881;DHT22;10600;53.096;8.802;2023-04-29T04:23:21;8.50;99.90
20881;DHT22;10600;53.096;8.802;2023-04-29T04:24:22;8.50;99.90
20881;DHT22;10600;53.096;8.802;2023-04-29T04:25:22;8.60;99.90
20881;DHT22;10600;53.096;8.802;2023-04-29T04:26:23;8.50;99.90
20881;DHT22;10600;53.096;8.802;2023-04-29T04:27:24;8.50;99.90
20881;DHT22;10600;53.096;8.802;2023-04-29T04:28:24;8.50;99.90
20881;DHT22;10600;53.096;8.802;2023-04-29T04:29:25;8.50;99.90
20881;DHT22;10600;53.096;8.802;2023-04-29T04:30:25;8.60;99.90
20881;DHT22;10600;53.096;8.802;2023-04-29T04:31:26;8.60;99.90
20881;DHT22;10600;53.096;8.802;2023-04-29T04:32:27;8.60;99.90
20881;DHT22;10600;53.096;8.802;2023-04-29T04:33:27;8.50;99.90
20881;DHT22;10600;53.096;8.802;2023-04-29T04:34:28;8.60;99.90
20881;DHT22;10600;53.096;8.802;2023-04-29T04:35:29;8.60;99.90
20881;DHT22;10600;53.096;8.802;2023-04-29T04:36:30;8.60;99.90
20881;DHT22;10600;53.096;8.802;2023-04-29T04:37:32;8.60;99.90
20881;DHT22;10600;53.096;8.802;2023-04-29T04:38:33;8.60;99.90
20881;DHT22;10600;53.096;8.802;2023-04-29T04:39:33;8.50;99.90
20881;DHT22;10600;53.096;8.802;2023-04-29T04:40:34;8.60;99.90
20881;DHT22;10600;53.096;8.802;2023-04-29T04:41:35;8.60;99.90
20881;DHT22;10600;53.096;8.802;2023-04-29T04:42:35;8.60;99.90
20881;DHT22;10600;53.096;8.802;2023-04-29T04:43:36;8.60;99.90
20881;DHT22;10600;53.096;8.802;2023-04-29T04:44:36;8.50;99.90
20881;DHT22;10600;53.096;8.802;2023-04-29T04:45:37;8.60;99.90
20881;DHT22;10600;53.096;8.802;2023-04-29T04:46:38;8.60;99.90
20881;DHT22;10600;53.096;8.802;2023-04-29T04:47:39;8.50;99.90
20881;DHT22;10600;53.096;8.802;2023-04-29T04:48:40;8.60;99.90
20881;DHT22;10600;53.096;8.802;2023-04-29T04:49:41;8.60;99.90
20881;DHT22;10600;53.096;8.802;2023-04-29T04:50:42;8.60;99.90
20881;DHT22;10600;53.096;8.802;2023-04-29T04:51:43;8.60;99.90
20881;DHT22;10600;53.096;8.802;2023-04-29T04:52:44;8.60;99.90
20881;DHT22;10600;53.096;8.802;2023-04-29T04:53:45;8.60;99.90
20881;DHT22;10600;53.096;8.802;2023-04-29T04:54:46;8.60;99.90
20881;DHT22;10600;53.096;8.802;2023-04-29T04:55:46;8.60;99.90
20881;DHT22;10600;53.096;8.802;2023-04-29T04:56:49;8.60;99.90
20881;DHT22;10600;53.096;8.802;2023-04-29T04:57:51;8.60;99.90
20881;DHT22;10600;53.096;8.802;2023-04-29T04:58:52;8.60;99.90
20881;DHT22;10600;53.096;8.802;2023-04-29T04:59:52;8.60;99.90
20881;DHT22;10600;53.096;8.802;2023-04-29T05:00:53;8.60;99.90
20881;DHT22;10600;53.096;8.802;2023-04-29T05:01:53;8.70;99.90
20881;DHT22;10600;53.096;8.802;2023-04-29T05:02:54;8.60;99.90
20881;DHT22;10600;53.096;8.802;2023-04-29T05:03:55;8.70;99.90
20881;DHT22;10600;53.096;8.802;2023-04-29T05:04:56;8.60;99.90
20881;DHT22;10600;53.096;8.802;2023-04-29T05:05:58;8.60;99.90
20881;DHT22;10600;53.096;8.802;2023-04-29T05:06:59;8.60;99.90
20881;DHT22;10600;53.096;8.802;2023-04-29T05:08:00;8.60;99.90
20881;DHT22;10600;53.096;8.802;2023-04-29T05:09:00;8.70;99.90
20881;DHT22;10600;53.096;8.802;2023-04-29T05:10:02;8.60;99.90
20881;DHT22;10600;53.096;8.802;2023-04-29T05:11:03;8.60;99.90
20881;DHT22;10600;53.096;8.802;2023-04-29T05:12:03;8.70;99.90
20881;DHT22;10600;53.096;8.802;2023-04-29T05:13:04;8.70;99.90
20881;DHT22;10600;53.096;8.802;2023-04-29T05:14:05;8.70;99.90
20881;DHT22;10600;53.096;8.802;2023-04-29T05:15:06;8.70;99.90
20881;DHT22;10600;53.096;8.802;2023-04-29T05:16:07;8.70;99.90
20881;DHT22;10600;53.096;8.802;2023-04-29T05:17:07;8.70;99.90
20881;DHT22;10600;53.096;8.802;2023-04-29T05:18:10;8.70;99.90
20881;DHT22;10600;53.096;8.802;2023-04-29T05:19:10;8.70;99.90
20881;DHT22;10600;53.096;8.802;2023-04-29T05:20:11;8.80;99.90
20881;DHT22;10600;53.096;8.802;2023-04-29T05:21:12;8.80;99.90
20881;DHT22;10600;53.096;8.802;2023-04-29T05:22:13;8.80;99.90
20881;DHT22;10600;53.096;8.802;2023-04-29T05:23:13;8.80;99.90
20881;DHT22;10600;53.096;8.802;2023-04-29T05:24:14;8.80;99.90
20881;DHT22;10600;53.096;8.802;2023-04-29T05:25:15;8.80;99.90
20881;DHT22;10600;53.096;8.802;2023-04-29T05:26:15;8.80;99.90
20881;DHT22;10600;53.096;8.802;2023-04-29T05:27:16;8.80;99.90
20881;DHT22;10600;53.096;8.802;2023-04-29T05:28:16;8.80;99.90
20881;DHT22;10600;53.096;8.802;2023-04-29T05:29:17;8.80;99.90
20881;DHT22;10600;53.096;8.802;2023-04-29T05:30:18;8.80;99.90
20881;DHT22;10600;53.096;8.802;2023-04-29T05:31:19;8.80;99.90
20881;DHT22;10600;53.096;8.802;2023-04-29T05:32:20;8.80;99.90
20881;DHT22;10600;53.096;8.802;2023-04-29T05:33:21;8.90;99.90
20881;DHT22;10600;53.096;8.802;2023-04-29T05:34:22;8.90;99.90
20881;DHT22;10600;53.096;8.802;2023-04-29T05:35:22;8.90;99.90
20881;DHT22;10600;53.096;8.802;2023-04-29T05:36:23;8.90;99.90
20881;DHT22;10600;53.096;8.802;2023-04-29T05:37:24;9.00;99.90
20881;DHT22;10600;53.096;8.802;2023-04-29T05:38:30;9.00;99.90
20881;DHT22;10600;53.096;8.802;2023-04-29T05:39:30;9.00;99.90
20881;DHT22;10600;53.096;8.802;2023-04-29T05:40:31;9.00;99.90
20881;DHT22;10600;53.096;8.802;2023-04-29T05:41:31;9.00;99.90
20881;DHT22;10600;53.096;8.802;2023-04-29T05:42:32;9.00;99.90
20881;DHT22;10600;53.096;8.802;2023-04-29T05:43:33;9.00;99.90
20881;DHT22;10600;53.096;8.802;2023-04-29T05:44:35;9.00;99.90
20881;DHT22;10600;53.096;8.802;2023-04-29T05:45:35;9.10;99.90
20881;DHT22;10600;53.096;8.802;2023-04-29T05:46:36;9.10;99.90
20881;DHT22;10600;53.096;8.802;2023-04-29T05:47:36;9.10;99.90
20881;DHT22;10600;53.096;8.802;2023-04-29T05:48:37;9.10;99.90
20881;DHT22;10600;53.096;8.802;2023-04-29T05:49:38;9.10;99.90
20881;DHT22;10600;53.096;8.802;2023-04-29T05:50:39;9.10;99.90
20881;DHT22;10600;53.096;8.802;2023-04-29T05:51:40;9.10;99.90
20881;DHT22;10600;53.096;8.802;2023-04-29T05:52:40;9.10;99.90
20881;DHT22;10600;53.096;8.802;2023-04-29T05:53:41;9.20;99.90
20881;DHT22;10600;53.096;8.802;2023-04-29T05:54:42;9.20;99.90
20881;DHT22;10600;53.096;8.802;2023-04-29T05:55:42;9.20;99.90
20881;DHT22;10600;53.096;8.802;2023-04-29T05:56:44;9.20;99.90
20881;DHT22;10600;53.096;8.802;2023-04-29T05:57:45;9.20;99.90
20881;DHT22;10600;53.096;8.802;2023-04-29T05:58:45;9.20;99.90
20881;DHT22;10600;53.096;8.802;2023-04-29T05:59:46;9.20;99.90
20881;DHT22;10600;53.096;8.802;2023-04-29T06:00:47;9.20;99.90
20881;DHT22;10600;53.096;8.802;2023-04-29T06:01:48;9.20;99.90
20881;DHT22;10600;53.096;8.802;2023-04-29T06:02:49;9.30;99.90
20881;DHT22;10600;53.096;8.802;2023-04-29T06:03:50;9.30;99.90
20881;DHT22;10600;53.096;8.802;2023-04-29T06:04:50;9.30;99.90
20881;DHT22;10600;53.096;8.802;2023-04-29T06:05:51;9.30;99.90
20881;DHT22;10600;53.096;8.802;2023-04-29T06:06:53;9.30;99.90
20881;DHT22;10600;53.096;8.802;2023-04-29T06:07:54;9.30;99.90
20881;DHT22;10600;53.096;8.802;2023-04-29T06:08:55;9.30;99.90
20881;DHT22;10600;53.096;8.802;2023-04-29T06:09:56;9.30;99.90
20881;DHT22;10600;53.096;8.802;2023-04-29T06:10:57;9.40;99.90
20881;DHT22;10600;53.096;8.802;2023-04-29T06:11:57;9.30;99.90
20881;DHT22;10600;53.096;8.802;2023-04-29T06:12:58;9.40;99.90
20881;DHT22;10600;53.096;8.802;2023-04-29T06:13:59;9.40;99.90
20881;DHT22;10600;53.096;8.802;2023-04-29T06:14:59;9.40;99.90
20881;DHT22;10600;53.096;8.802;2023-04-29T06:16:00;9.40;99.90
20881;DHT22;10600;53.096;8.802;2023-04-29T06:17:01;9.40;99.90
20881;DHT22;10600;53.096;8.802;2023-04-29T06:18:03;9.40;99.90
20881;DHT22;10600;53.096;8.802;2023-04-29T06:19:03;9.40;99.90
20881;DHT22;10600;53.096;8.802;2023-04-29T06:20:05;9.40;99.90
20881;DHT22;10600;53.096;8.802;2023-04-29T06:21:06;9.40;99.90
20881;DHT22;10600;53.096;8.802;2023-04-29T06:22:06;9.40;99.90
20881;DHT22;10600;53.096;8.802;2023-04-29T06:23:07;9.50;99.90
20881;DHT22;10600;53.096;8.802;2023-04-29T06:24:08;9.50;99.90
20881;DHT22;10600;53.096;8.802;2023-04-29T06:25:09;9.50;99.90
20881;DHT22;10600;53.096;8.802;2023-04-29T06:26:09;9.50;99.90
20881;DHT22;10600;53.096;8.802;2023-04-29T06:27:10;9.50;99.90
20881;DHT22;10600;53.096;8.802;2023-04-29T06:28:10;9.50;99.90
20881;DHT22;10600;53.096;8.802;2023-04-29T06:29:11;9.60;99.90
20881;DHT22;10600;53.096;8.802;2023-04-29T06:30:12;9.60;99.90
20881;DHT22;10600;53.096;8.802;2023-04-29T06:31:12;9.60;99.90
20881;DHT22;10600;53.096;8.802;2023-04-29T06:32:13;9.60;99.90
20881;DHT22;10600;53.096;8.802;2023-04-29T06:33:14;9.60;99.90
20881;DHT22;10600;53.096;8.802;2023-04-29T06:34:14;9.60;99.90
20881;DHT22;10600;53.096;8.802;2023-04-29T06:35:15;9.60;99.90
20881;DHT22;10600;53.096;8.802;2023-04-29T06:36:16;9.60;99.90
20881;DHT22;10600;53.096;8.802;2023-04-29T06:37:16;9.70;99.90
20881;DHT22;10600;53.096;8.802;2023-04-29T06:38:17;9.70;99.90
20881;DHT22;10600;53.096;8.802;2023-04-29T06:39:18;9.70;99.90